LNK146 EGGD-EGCC
Flight info
| Callsign | LNK146 |
|---|---|
| Flight time | 0h 28m |
| Altitude | 18000 |
| Route | BCN P69 EXBUM/N0430F200 P69 DIZIM N864 MONTY |
| Aircraft | A35K/H-SDE2E3GHIJ3J4J5LM1ORWXY/LB1D1 |
Departure
| Time | 2026-05-05 07:21 |
|---|---|
| Airport | Bristol Airport (EGGD) |
Arrival
| Time | 2026-05-05 07:49 |
|---|---|
| Airport | Manchester Airport (EGCC) |
| Time | Latitude | Longitude | Altitude | Speed | Heading |
|---|---|---|---|---|---|
| 2026-05-05 07:13 | 51.38533 | -2.71675 | 620 ft | 0 kts | 356° |
| 2026-05-05 07:15 | 51.38528 | -2.71674 | 620 ft | 1 kts | 356° |
| 2026-05-05 07:15 | 51.38513 | -2.71673 | 634 ft | 3 kts | 356° |
| 2026-05-05 07:15 | 51.38496 | -2.71671 | 632 ft | 2 kts | 355° |
| 2026-05-05 07:15 | 51.38479 | -2.71668 | 635 ft | 2 kts | 346° |
| 2026-05-05 07:16 | 51.38464 | -2.71662 | 631 ft | 3 kts | 335° |
| 2026-05-05 07:16 | 51.38449 | -2.71646 | 637 ft | 3 kts | 302° |
| 2026-05-05 07:16 | 51.38442 | -2.71621 | 638 ft | 1 kts | 272° |
| 2026-05-05 07:16 | 51.38442 | -2.71641 | 637 ft | 4 kts | 272° |
| 2026-05-05 07:17 | 51.38442 | -2.71664 | 637 ft | 0 kts | 263° |
| 2026-05-05 07:17 | 51.38440 | -2.71691 | 636 ft | 4 kts | 263° |
| 2026-05-05 07:17 | 51.38435 | -2.71761 | 633 ft | 8 kts | 263° |
| 2026-05-05 07:17 | 51.38431 | -2.71870 | 625 ft | 12 kts | 266° |
| 2026-05-05 07:18 | 51.38425 | -2.72021 | 632 ft | 15 kts | 266° |
| 2026-05-05 07:18 | 51.38422 | -2.72206 | 622 ft | 18 kts | 268° |
| 2026-05-05 07:18 | 51.38418 | -2.72427 | 622 ft | 21 kts | 268° |
| 2026-05-05 07:18 | 51.38409 | -2.72679 | 634 ft | 24 kts | 264° |
| 2026-05-05 07:19 | 51.38399 | -2.72858 | 631 ft | 25 kts | 265° |
| 2026-05-05 07:19 | 51.38386 | -2.73143 | 627 ft | 26 kts | 267° |
| 2026-05-05 07:19 | 51.38261 | -2.73350 | 633 ft | 15 kts | 159° |
| 2026-05-05 07:19 | 51.38219 | -2.73248 | 638 ft | 11 kts | 104° |
| 2026-05-05 07:20 | 51.38214 | -2.73128 | 637 ft | 11 kts | 82° |
| 2026-05-05 07:20 | 51.38228 | -2.72947 | 636 ft | 53 kts | 84° |
| 2026-05-05 07:20 | 51.38272 | -2.71799 | 643 ft | 152 kts | 86° |
| 2026-05-05 07:20 | 51.38351 | -2.69776 | 1090 ft | 205 kts | 84° |
| 2026-05-05 07:21 | 51.38454 | -2.67281 | 1498 ft | 243 kts | 83° |
| 2026-05-05 07:21 | 51.38591 | -2.64396 | 1785 ft | 270 kts | 82° |
| 2026-05-05 07:21 | 51.38727 | -2.61578 | 2106 ft | 242 kts | 83° |
| 2026-05-05 07:21 | 51.38846 | -2.58885 | 2383 ft | 245 kts | 83° |
| 2026-05-05 07:22 | 51.39091 | -2.56167 | 2622 ft | 246 kts | 66° |
| 2026-05-05 07:22 | 51.40147 | -2.54091 | 2999 ft | 243 kts | 30° |
| 2026-05-05 07:22 | 51.40580 | -2.53756 | 3183 ft | 244 kts | 19° |
| 2026-05-05 07:22 | 51.42267 | -2.53702 | 4007 ft | 250 kts | 343° |
| 2026-05-05 07:23 | 51.43733 | -2.55213 | 4988 ft | 253 kts | 319° |
| 2026-05-05 07:23 | 51.45095 | -2.57017 | 5988 ft | 254 kts | 321° |
| 2026-05-05 07:23 | 51.46095 | -2.59350 | 6906 ft | 260 kts | 293° |
| 2026-05-05 07:23 | 51.46808 | -2.62012 | 7815 ft | 265 kts | 297° |
| 2026-05-05 07:24 | 51.47671 | -2.64662 | 8769 ft | 270 kts | 300° |
| 2026-05-05 07:24 | 51.48631 | -2.67291 | 9807 ft | 274 kts | 302° |
| 2026-05-05 07:24 | 51.49641 | -2.69905 | 10728 ft | 279 kts | 303° |
| 2026-05-05 07:24 | 51.50690 | -2.72537 | 11558 ft | 286 kts | 303° |
| 2026-05-05 07:25 | 51.51782 | -2.75233 | 12533 ft | 289 kts | 304° |
| 2026-05-05 07:25 | 51.52895 | -2.77962 | 13457 ft | 294 kts | 304° |
| 2026-05-05 07:25 | 51.54031 | -2.80741 | 14240 ft | 301 kts | 304° |
| 2026-05-05 07:25 | 51.55196 | -2.83586 | 15003 ft | 308 kts | 304° |
| 2026-05-05 07:26 | 51.56406 | -2.86542 | 15446 ft | 326 kts | 303° |
| 2026-05-05 07:26 | 51.57677 | -2.89650 | 15805 ft | 345 kts | 303° |
| 2026-05-05 07:26 | 51.59031 | -2.92964 | 16173 ft | 363 kts | 303° |
| 2026-05-05 07:26 | 51.60456 | -2.96445 | 16552 ft | 381 kts | 303° |
| 2026-05-05 07:27 | 51.61947 | -3.00105 | 16897 ft | 399 kts | 302° |
| 2026-05-05 07:27 | 51.63498 | -3.03921 | 17260 ft | 416 kts | 302° |
| 2026-05-05 07:27 | 51.65093 | -3.07838 | 17750 ft | 427 kts | 302° |
| 2026-05-05 07:27 | 51.66727 | -3.11867 | 17992 ft | 430 kts | 302° |
| 2026-05-05 07:28 | 51.68365 | -3.15912 | 18021 ft | 432 kts | 302° |
| 2026-05-05 07:28 | 51.70012 | -3.19986 | 18022 ft | 433 kts | 302° |
| 2026-05-05 07:28 | 51.71721 | -3.23980 | 18019 ft | 434 kts | 310° |
| 2026-05-05 07:28 | 51.74034 | -3.27144 | 18026 ft | 435 kts | 328° |
| 2026-05-05 07:29 | 51.76818 | -3.29007 | 18026 ft | 434 kts | 346° |
| 2026-05-05 07:29 | 51.79800 | -3.29365 | 18305 ft | 440 kts | 5° |
| 2026-05-05 07:29 | 51.82815 | -3.28147 | 18971 ft | 443 kts | 22° |
| 2026-05-05 07:29 | 51.85598 | -3.26107 | 19617 ft | 443 kts | 26° |
| 2026-05-05 07:30 | 51.88415 | -3.24057 | 19942 ft | 446 kts | 22° |
| 2026-05-05 07:30 | 51.94323 | -3.21023 | 20033 ft | 448 kts | 13° |
| 2026-05-05 07:30 | 51.97373 | -3.20018 | 20034 ft | 443 kts | 10° |
| 2026-05-05 07:31 | 52.00398 | -3.19214 | 20036 ft | 440 kts | 8° |
| 2026-05-05 07:31 | 52.03444 | -3.18584 | 20038 ft | 439 kts | 4° |
| 2026-05-05 07:31 | 52.06493 | -3.18256 | 20043 ft | 439 kts | 2° |
| 2026-05-05 07:31 | 52.09555 | -3.18012 | 20042 ft | 439 kts | 2° |
| 2026-05-05 07:32 | 52.12565 | -3.17805 | 20042 ft | 439 kts | 2° |
| 2026-05-05 07:32 | 52.14050 | -3.17707 | 20043 ft | 439 kts | 2° |
| 2026-05-05 07:32 | 52.15914 | -3.17580 | 20045 ft | 439 kts | 2° |
| 2026-05-05 07:32 | 52.17232 | -3.17490 | 20046 ft | 439 kts | 2° |
| 2026-05-05 07:33 | 52.19495 | -3.17326 | 20045 ft | 439 kts | 2° |
| 2026-05-05 07:33 | 52.19746 | -3.17308 | 20046 ft | 439 kts | 2° |
| 2026-05-05 07:33 | 52.22769 | -3.17084 | 20045 ft | 439 kts | 2° |
| 2026-05-05 07:33 | 52.25819 | -3.16856 | 20050 ft | 439 kts | 2° |
| 2026-05-05 07:34 | 52.28872 | -3.16709 | 20046 ft | 438 kts | 358° |
| 2026-05-05 07:34 | 52.31905 | -3.17140 | 20049 ft | 437 kts | 352° |
| 2026-05-05 07:34 | 52.34922 | -3.17825 | 20052 ft | 437 kts | 350° |
| 2026-05-05 07:34 | 52.37929 | -3.18571 | 20049 ft | 437 kts | 350° |
| 2026-05-05 07:35 | 52.40941 | -3.19342 | 20048 ft | 437 kts | 350° |
| 2026-05-05 07:35 | 52.43942 | -3.20122 | 20048 ft | 437 kts | 349° |
| 2026-05-05 07:35 | 52.46913 | -3.20901 | 20048 ft | 437 kts | 349° |
| 2026-05-05 07:35 | 52.49922 | -3.21693 | 20050 ft | 437 kts | 349° |
| 2026-05-05 07:36 | 52.52926 | -3.22488 | 20054 ft | 436 kts | 349° |
| 2026-05-05 07:36 | 52.55940 | -3.23288 | 20053 ft | 436 kts | 349° |
| 2026-05-05 07:36 | 52.58934 | -3.24084 | 20053 ft | 436 kts | 349° |
| 2026-05-05 07:36 | 52.61891 | -3.24871 | 20055 ft | 436 kts | 349° |
| 2026-05-05 07:37 | 52.64925 | -3.25681 | 20056 ft | 436 kts | 349° |
| 2026-05-05 07:37 | 52.67879 | -3.26470 | 20056 ft | 436 kts | 349° |
| 2026-05-05 07:37 | 52.70901 | -3.27071 | 19967 ft | 435 kts | 356° |
| 2026-05-05 07:37 | 52.73910 | -3.26581 | 19373 ft | 436 kts | 13° |
| 2026-05-05 07:38 | 52.76788 | -3.25042 | 18810 ft | 433 kts | 18° |
| 2026-05-05 07:38 | 52.79611 | -3.23349 | 18184 ft | 430 kts | 18° |
| 2026-05-05 07:38 | 52.82385 | -3.21683 | 17484 ft | 426 kts | 18° |
| 2026-05-05 07:38 | 52.85165 | -3.20014 | 16785 ft | 423 kts | 18° |
| 2026-05-05 07:39 | 52.87922 | -3.18359 | 16118 ft | 419 kts | 18° |
| 2026-05-05 07:39 | 52.90655 | -3.16686 | 15429 ft | 416 kts | 20° |
| 2026-05-05 07:39 | 52.93156 | -3.14295 | 14769 ft | 415 kts | 37° |
| 2026-05-05 07:39 | 52.95215 | -3.11019 | 14151 ft | 412 kts | 46° |
| 2026-05-05 07:40 | 52.97103 | -3.07492 | 13588 ft | 407 kts | 49° |
| 2026-05-05 07:40 | 52.98838 | -3.03797 | 12930 ft | 402 kts | 53° |
| 2026-05-05 07:40 | 53.00370 | -3.00080 | 12302 ft | 382 kts | 55° |
| 2026-05-05 07:40 | 53.01777 | -2.96490 | 11688 ft | 361 kts | 56° |
| 2026-05-05 07:41 | 53.03108 | -2.93083 | 11090 ft | 342 kts | 55° |
| 2026-05-05 07:41 | 53.04453 | -2.89934 | 10489 ft | 326 kts | 51° |
| 2026-05-05 07:41 | 53.05808 | -2.87000 | 9896 ft | 313 kts | 50° |
| 2026-05-05 07:41 | 53.07136 | -2.84203 | 9265 ft | 302 kts | 49° |
| 2026-05-05 07:42 | 53.08401 | -2.81520 | 8638 ft | 293 kts | 50° |
| 2026-05-05 07:42 | 53.09647 | -2.78894 | 8004 ft | 284 kts | 50° |
| 2026-05-05 07:42 | 53.10850 | -2.76326 | 7412 ft | 277 kts | 49° |
| 2026-05-05 07:42 | 53.12007 | -2.73849 | 6828 ft | 270 kts | 50° |
| 2026-05-05 07:43 | 53.13143 | -2.71431 | 6217 ft | 264 kts | 50° |
| 2026-05-05 07:43 | 53.14313 | -2.69101 | 5584 ft | 258 kts | 46° |
| 2026-05-05 07:43 | 53.15511 | -2.66926 | 4977 ft | 253 kts | 45° |
| 2026-05-05 07:43 | 53.16664 | -2.64722 | 4344 ft | 249 kts | 46° |
| 2026-05-05 07:44 | 53.17763 | -2.62522 | 3803 ft | 243 kts | 47° |
| 2026-05-05 07:44 | 53.18787 | -2.60415 | 3593 ft | 223 kts | 47° |
| 2026-05-05 07:44 | 53.19696 | -2.58539 | 3576 ft | 198 kts | 46° |
| 2026-05-05 07:44 | 53.20531 | -2.56839 | 3597 ft | 185 kts | 45° |
| 2026-05-05 07:45 | 53.21341 | -2.55211 | 3597 ft | 180 kts | 46° |
| 2026-05-05 07:45 | 53.22147 | -2.53599 | 3589 ft | 181 kts | 46° |
| 2026-05-05 07:45 | 53.22947 | -2.51997 | 3588 ft | 182 kts | 47° |
| 2026-05-05 07:45 | 53.23768 | -2.50351 | 3344 ft | 186 kts | 47° |
| 2026-05-05 07:46 | 53.24585 | -2.48687 | 2984 ft | 184 kts | 47° |
| 2026-05-05 07:46 | 53.25385 | -2.47042 | 2717 ft | 179 kts | 47° |
| 2026-05-05 07:46 | 53.26174 | -2.45429 | 2469 ft | 179 kts | 47° |
| 2026-05-05 07:46 | 53.26961 | -2.43821 | 2221 ft | 179 kts | 47° |
| 2026-05-05 07:47 | 53.27744 | -2.42217 | 1963 ft | 179 kts | 47° |
| 2026-05-05 07:47 | 53.28532 | -2.40603 | 1724 ft | 179 kts | 47° |
| 2026-05-05 07:47 | 53.29323 | -2.38984 | 1485 ft | 180 kts | 48° |
| 2026-05-05 07:47 | 53.30117 | -2.37357 | 1209 ft | 179 kts | 48° |
| 2026-05-05 07:48 | 53.30883 | -2.35787 | 960 ft | 174 kts | 49° |
| 2026-05-05 07:48 | 53.31635 | -2.34243 | 722 ft | 167 kts | 49° |
| 2026-05-05 07:48 | 53.32354 | -2.32768 | 476 ft | 159 kts | 49° |
| 2026-05-05 07:48 | 53.33028 | -2.31401 | 312 ft | 146 kts | 48° |
| 2026-05-05 07:49 | 53.33639 | -2.30162 | 238 ft | 119 kts | 51° |
| 2026-05-05 07:49 | 53.34000 | -2.29409 | 240 ft | 63 kts | 50° |
| 2026-05-05 07:49 | 53.34264 | -2.28873 | 236 ft | 57 kts | 50° |
| 2026-05-05 07:49 | 53.34538 | -2.28523 | 238 ft | 41 kts | 23° |
| 2026-05-05 07:50 | 53.34770 | -2.28277 | 236 ft | 41 kts | 50° |
| 2026-05-05 07:50 | 53.34954 | -2.27909 | 240 ft | 41 kts | 51° |
| 2026-05-05 07:50 | 53.35115 | -2.27567 | 240 ft | 12 kts | 51° |
| 2026-05-05 07:50 | 53.35122 | -2.27554 | 240 ft | 3 kts | 51° |
| 2026-05-05 07:51 | 53.35122 | -2.27553 | 240 ft | 0 kts | 51° |
| 2026-05-05 07:53 | 53.35134 | -2.27529 | 240 ft | 13 kts | 51° |
| 2026-05-05 07:53 | 53.35288 | -2.27239 | 246 ft | 38 kts | 32° |
| 2026-05-05 07:53 | 53.35501 | -2.27364 | 254 ft | 34 kts | 321° |
| 2026-05-05 07:54 | 53.35695 | -2.27612 | 253 ft | 35 kts | 334° |
| 2026-05-05 07:54 | 53.35873 | -2.27851 | 260 ft | 28 kts | 326° |
| 2026-05-05 07:54 | 53.36035 | -2.27966 | 261 ft | 25 kts | 316° |
| 2026-05-05 07:54 | 53.36178 | -2.28137 | 261 ft | 26 kts | 357° |
| 2026-05-05 07:55 | 53.36340 | -2.28013 | 261 ft | 27 kts | 41° |
| 2026-05-05 07:55 | 53.36383 | -2.27887 | 261 ft | 1 kts | 95° |
| 2026-05-05 07:55 | 53.36375 | -2.27859 | 261 ft | 4 kts | 115° |
| 2026-05-05 07:55 | 53.36354 | -2.27796 | 261 ft | 8 kts | 108° |
| 2026-05-05 07:56 | 53.36379 | -2.27713 | 261 ft | 9 kts | 51° |
| 2026-05-05 07:56 | 53.36406 | -2.27667 | 261 ft | 0 kts | 45° |